createdAt,value
2022-08-08T00:02:30.284Z,100962.91
2022-08-08T00:05:11.060Z,100959.97
2022-08-08T00:07:56.683Z,100965.06
2022-08-08T00:10:39.154Z,100964.84
2022-08-08T00:13:10.592Z,100975.69
2022-08-08T00:15:56.511Z,100975.97
2022-08-08T00:18:35.243Z,100978.56
2022-08-08T00:21:05.224Z,100978.28
2022-08-08T00:23:57.598Z,100970.84
2022-08-08T00:26:35.619Z,100974.28
2022-08-08T00:29:15.043Z,100974.75
2022-08-08T00:32:20.779Z,100991.00
2022-08-08T00:34:58.136Z,100993.66
2022-08-08T00:37:47.238Z,100997.13
2022-08-08T00:41:10.327Z,100987.38
2022-08-08T00:43:20.371Z,100983.75
2022-08-08T00:46:16.366Z,100979.63
2022-08-08T00:49:05.265Z,100972.34
2022-08-08T00:52:19.429Z,100981.69
2022-08-08T00:55:12.773Z,100977.84
2022-08-08T00:58:05.259Z,100984.03
2022-08-08T01:00:51.303Z,100977.66
2022-08-08T01:04:02.569Z,100979.38
2022-08-08T01:06:52.077Z,100983.06
2022-08-08T01:09:36.845Z,100981.38
2022-08-08T01:12:29.801Z,100981.16
2022-08-08T01:15:07.050Z,100981.53
2022-08-08T01:18:19.712Z,100983.06
2022-08-08T01:20:51.682Z,100979.34
2022-08-08T01:24:03.069Z,100985.19
2022-08-08T01:26:49.226Z,100985.00
2022-08-08T01:29:59.540Z,100985.31
2022-08-08T01:33:16.338Z,100980.84
2022-08-08T01:36:05.985Z,100976.94
2022-08-08T01:38:41.782Z,100971.13
2022-08-08T01:41:16.007Z,100977.34
2022-08-08T01:43:53.373Z,100975.41
2022-08-08T01:46:47.447Z,100972.25
2022-08-08T01:49:44.185Z,100969.00
2022-08-08T01:52:44.581Z,100961.97
2022-08-08T01:56:27.034Z,100968.59
2022-08-08T01:58:38.466Z,100971.25
2022-08-08T02:01:17.093Z,100976.63
2022-08-08T02:04:08.759Z,100975.69
2022-08-08T02:06:43.424Z,100979.19
2022-08-08T02:10:01.075Z,100974.56
2022-08-08T02:12:32.240Z,100983.28
2022-08-08T02:15:16.030Z,100981.78
2022-08-08T02:18:10.191Z,100973.28
2022-08-08T02:21:28.539Z,100976.03
2022-08-08T02:24:24.822Z,100977.88
2022-08-08T02:27:10.492Z,100987.06
2022-08-08T02:29:53.207Z,100986.47
2022-08-08T02:32:54.884Z,100978.72
2022-08-08T02:36:03.705Z,100969.00
2022-08-08T02:38:34.591Z,100957.88
2022-08-08T02:41:59.511Z,100948.13
2022-08-08T02:44:35.488Z,100939.38
2022-08-08T02:47:47.167Z,100929.28
2022-08-08T02:51:07.247Z,100936.97
2022-08-08T02:53:57.562Z,100937.25
2022-08-08T02:56:43.049Z,100947.78
2022-08-08T03:00:26.931Z,100940.53
2022-08-08T03:03:03.900Z,100938.19
2022-08-08T03:05:57.258Z,100926.84
2022-08-08T03:09:01.494Z,100929.53
2022-08-08T03:12:06.084Z,100935.44
2022-08-08T03:15:57.497Z,100936.84
2022-08-08T03:18:13.526Z,100930.91
2022-08-08T03:20:51.405Z,100931.72
2022-08-08T03:23:23.422Z,100933.59
2022-08-08T03:25:51.023Z,100927.13
2022-08-08T03:28:42.970Z,100927.94
2022-08-08T03:31:28.144Z,100931.75
2022-08-08T03:34:04.633Z,100931.72
2022-08-08T03:36:31.589Z,100930.94
2022-08-08T03:39:14.618Z,100923.38
2022-08-08T03:42:26.798Z,100922.31
2022-08-08T03:44:35.593Z,100930.41
2022-08-08T03:47:19.217Z,100928.25
2022-08-08T03:49:59.502Z,100925.00
2022-08-08T03:52:30.215Z,100932.31
2022-08-08T03:55:01.929Z,100940.94
2022-08-08T03:58:32.274Z,100939.06
2022-08-08T04:00:27.852Z,100946.31
2022-08-08T04:03:03.442Z,100945.81
2022-08-08T04:05:36.208Z,100954.19
2022-08-08T04:08:05.379Z,100957.66
2022-08-08T04:10:34.636Z,100962.81
2022-08-08T04:13:17.430Z,100974.13
2022-08-08T04:15:54.711Z,100963.63
2022-08-08T04:18:30.971Z,100980.91
2022-08-08T04:20:57.786Z,100990.91
2022-08-08T04:23:24.288Z,100986.59
2022-08-08T04:26:04.067Z,100993.34
2022-08-08T04:28:40.502Z,100987.13
2022-08-08T04:31:09.292Z,100994.16
2022-08-08T04:33:41.698Z,100994.41
2022-08-08T04:36:08.743Z,101005.50
2022-08-08T04:38:35.298Z,100999.78
2022-08-08T04:41:02.112Z,100998.16
2022-08-08T04:43:32.240Z,101005.16
2022-08-08T04:46:14.763Z,101009.16
2022-08-08T04:48:41.625Z,100995.75
2022-08-08T04:51:09.401Z,100997.09
2022-08-08T04:54:27.174Z,101008.66
2022-08-08T04:56:22.639Z,101015.75
2022-08-08T04:58:50.538Z,101021.47
2022-08-08T05:01:17.874Z,101026.44
2022-08-08T05:04:10.542Z,101020.75
2022-08-08T05:06:31.288Z,101022.13
2022-08-08T05:09:02.639Z,101022.13
2022-08-08T05:11:29.908Z,101025.06
2022-08-08T05:14:05.739Z,101021.63
2022-08-08T05:16:54.651Z,101027.88
2022-08-08T05:20:10.417Z,101038.38
2022-08-08T05:22:09.806Z,101033.22
2022-08-08T05:24:37.654Z,101042.69
2022-08-08T05:27:06.037Z,101043.47
2022-08-08T05:29:35.843Z,101035.28
2022-08-08T05:32:08.123Z,101040.84
2022-08-08T05:34:41.979Z,101043.75
2022-08-08T05:37:17.186Z,101042.66
2022-08-08T05:39:56.953Z,101044.41
2022-08-08T05:42:35.526Z,101040.69
2022-08-08T05:45:10.385Z,101032.44
2022-08-08T05:48:00.039Z,101032.47
2022-08-08T05:50:29.917Z,101035.63
2022-08-08T05:53:53.941Z,101028.91
2022-08-08T05:56:10.082Z,101032.91
2022-08-08T05:58:53.999Z,101034.06
2022-08-08T06:01:56.105Z,101031.41
2022-08-08T06:04:23.079Z,101024.22
2022-08-08T06:06:56.659Z,101034.28
2022-08-08T06:09:59.321Z,101046.75
2022-08-08T06:12:30.149Z,101048.41
2022-08-08T06:15:00.074Z,101042.13
2022-08-08T06:17:32.036Z,101039.09
2022-08-08T06:20:14.245Z,101042.13
2022-08-08T06:22:43.062Z,101047.09
2022-08-08T06:25:10.359Z,101050.94
2022-08-08T06:27:57.744Z,101053.59
2022-08-08T06:30:26.255Z,101057.06
2022-08-08T06:32:57.450Z,101062.31
2022-08-08T06:36:06.995Z,101063.06
2022-08-08T06:38:14.484Z,101058.03
2022-08-08T06:40:48.448Z,101071.53
2022-08-08T06:43:20.812Z,101067.38
2022-08-08T06:45:56.173Z,101075.22
2022-08-08T06:48:26.648Z,101081.34
2022-08-08T06:50:54.011Z,101085.75
2022-08-08T06:53:21.926Z,101091.72
2022-08-08T06:56:02.088Z,101089.63
2022-08-08T06:58:33.708Z,101089.25
2022-08-08T07:01:24.433Z,101086.78
2022-08-08T07:04:40.076Z,101091.75
2022-08-08T07:06:45.016Z,101089.63
2022-08-08T07:09:17.874Z,101093.97
2022-08-08T07:11:52.288Z,101091.41
2022-08-08T07:14:32.880Z,101099.34
2022-08-08T07:17:09.123Z,101098.13
2022-08-08T07:19:59.759Z,101095.56
2022-08-08T07:22:57.704Z,101097.91
2022-08-08T07:25:29.390Z,101092.34
2022-08-08T07:28:19.578Z,101094.66
2022-08-08T07:30:46.727Z,101095.75
2022-08-08T07:33:17.739Z,101087.84
2022-08-08T07:35:47.232Z,101087.69
2022-08-08T07:38:20.396Z,101081.44
2022-08-08T07:40:49.068Z,101077.84
2022-08-08T07:43:32.386Z,101080.84
2022-08-08T07:46:17.392Z,101081.44
2022-08-08T07:48:50.756Z,101082.09
2022-08-08T07:51:23.651Z,101084.16
2022-08-08T07:54:12.447Z,101092.31
2022-08-08T07:57:36.453Z,101100.16
2022-08-08T08:00:13.196Z,101109.72
2022-08-08T08:02:44.549Z,101107.06
2022-08-08T08:05:22.584Z,101097.00
2022-08-08T08:08:20.979Z,101091.38
2022-08-08T08:10:52.659Z,101073.31
2022-08-08T08:13:42.795Z,101048.19
2022-08-08T08:16:34.741Z,101019.53
2022-08-08T08:19:05.177Z,101006.53
2022-08-08T08:21:57.044Z,101007.63
2022-08-08T08:24:30.794Z,101023.78
2022-08-08T08:27:02.701Z,101048.63
2022-08-08T08:29:30.091Z,101058.84
2022-08-08T08:31:58.279Z,101067.75
2022-08-08T08:34:32.343Z,101068.13
2022-08-08T08:37:08.406Z,101082.06
2022-08-08T08:40:00.496Z,101082.63
2022-08-08T08:42:31.367Z,101093.13
2022-08-08T08:45:21.161Z,101094.19
2022-08-08T08:47:52.980Z,101090.44
2022-08-08T08:50:33.077Z,101098.44
2022-08-08T08:53:54.695Z,101090.31
2022-08-08T08:56:01.415Z,101101.66
2022-08-08T08:58:35.565Z,101111.69
2022-08-08T09:01:10.119Z,101102.31
2022-08-08T09:03:47.739Z,101117.09
2022-08-08T09:06:28.205Z,101114.22
2022-08-08T09:09:25.849Z,101115.84
2022-08-08T09:12:02.070Z,101118.97
2022-08-08T09:14:35.219Z,101125.06
2022-08-08T09:17:09.765Z,101126.06
2022-08-08T09:21:59.246Z,101131.25
2022-08-08T09:22:27.582Z,101128.47
2022-08-08T09:24:55.895Z,101126.53
2022-08-08T09:27:57.691Z,101123.41
2022-08-08T09:30:14.501Z,101123.75
2022-08-08T09:33:12.408Z,101118.13
2022-08-08T09:35:48.711Z,101116.13
2022-08-08T09:38:29.687Z,101116.88
2022-08-08T09:41:04.573Z,101115.38
2022-08-08T09:44:04.466Z,101117.09
2022-08-08T09:46:25.544Z,101112.72
2022-08-08T09:49:18.182Z,101099.56
2022-08-08T09:52:06.232Z,101105.16
2022-08-08T09:54:54.337Z,101112.59
2022-08-08T09:57:46.208Z,101109.44
2022-08-08T10:00:35.840Z,101115.78
2022-08-08T10:03:04.198Z,101111.59
2022-08-08T10:05:36.148Z,101098.19
2022-08-08T10:08:09.910Z,101104.41
2022-08-08T10:10:41.430Z,101109.16
2022-08-08T10:13:35.721Z,101101.00
2022-08-08T10:16:05.851Z,101102.13
2022-08-08T10:18:36.843Z,101109.47
2022-08-08T10:21:25.229Z,101098.91
2022-08-08T10:24:02.851Z,101089.22
2022-08-08T10:26:57.248Z,101087.69
2022-08-08T10:29:58.871Z,101083.25
2022-08-08T10:32:32.570Z,101079.53
2022-08-08T10:36:07.679Z,101072.22
2022-08-08T10:38:15.054Z,101073.78
2022-08-08T10:40:45.762Z,101071.69
2022-08-08T10:43:12.944Z,101071.09
2022-08-08T10:45:56.466Z,101073.94
2022-08-08T10:48:56.574Z,101073.69
2022-08-08T10:51:50.824Z,101075.84
2022-08-08T10:54:25.336Z,101074.28
2022-08-08T10:57:03.836Z,101072.34
2022-08-08T10:59:39.266Z,101068.34
2022-08-08T11:02:07.307Z,101067.00
2022-08-08T11:04:44.915Z,101069.44
2022-08-08T11:08:31.248Z,101062.75
2022-08-08T11:10:29.174Z,101059.97
2022-08-08T11:13:28.466Z,101052.50
2022-08-08T11:16:00.299Z,101056.09
2022-08-08T11:18:30.358Z,101059.38
2022-08-08T11:20:59.145Z,101062.03
2022-08-08T11:23:32.942Z,101058.28
2022-08-08T11:26:03.383Z,101061.16
2022-08-08T11:28:34.815Z,101053.66
2022-08-08T11:31:05.768Z,101054.53
2022-08-08T11:33:52.651Z,101056.34
2022-08-08T11:36:27.708Z,101049.97
2022-08-08T11:38:56.999Z,101049.53
2022-08-08T11:41:28.172Z,101041.84
2022-08-08T11:43:59.738Z,101040.53
2022-08-08T11:46:30.568Z,101044.84
2022-08-08T11:48:59.826Z,101036.91
2022-08-08T11:51:29.927Z,101037.69
2022-08-08T11:54:04.772Z,101036.81
2022-08-08T11:56:42.096Z,101032.78
2022-08-08T11:59:10.679Z,101028.81
2022-08-08T12:01:37.932Z,101024.63
2022-08-08T12:04:05.831Z,101022.16
2022-08-08T12:06:33.649Z,101016.81
2022-08-08T12:09:08.848Z,101012.13
2022-08-08T12:11:41.338Z,101009.69
2022-08-08T12:14:11.626Z,101010.56
2022-08-08T12:16:49.374Z,101007.00
2022-08-08T12:19:21.982Z,101001.00
2022-08-08T12:22:09.445Z,101007.69
2022-08-08T12:24:51.371Z,101005.25
2022-08-08T12:27:27.055Z,100992.56
2022-08-08T12:30:15.673Z,101001.41
2022-08-08T12:32:48.135Z,100996.66
2022-08-08T12:35:23.010Z,100997.47
2022-08-08T12:38:07.746Z,101001.88
2022-08-08T12:40:54.812Z,100996.19
2022-08-08T12:43:43.420Z,101001.78
2022-08-08T12:46:19.292Z,101005.81
2022-08-08T12:49:25.547Z,101009.25
2022-08-08T12:51:58.555Z,100999.28
2022-08-08T12:54:33.409Z,101004.31
2022-08-08T12:57:23.297Z,100999.28
2022-08-08T13:00:06.318Z,100992.66
2022-08-08T13:02:51.073Z,100992.13
2022-08-08T13:05:26.983Z,100986.72
2022-08-08T13:08:38.425Z,100990.94
2022-08-08T13:11:05.401Z,100984.47
2022-08-08T13:13:35.106Z,100978.31
2022-08-08T13:16:37.133Z,100979.34
2022-08-08T13:19:11.778Z,100975.72
2022-08-08T13:21:53.549Z,100980.09
2022-08-08T13:24:40.976Z,100969.94
2022-08-08T13:27:35.303Z,100963.25
2022-08-08T13:30:05.870Z,100958.66
2022-08-08T13:32:39.527Z,100952.28
2022-08-08T13:35:24.330Z,100944.97
2022-08-08T13:38:06.794Z,100942.66
2022-08-08T13:40:35.215Z,100937.81
2022-08-08T13:43:03.868Z,100932.25
2022-08-08T13:45:31.025Z,100922.25
2022-08-08T13:48:01.650Z,100925.56
2022-08-08T13:50:44.015Z,100927.41
2022-08-08T13:53:33.950Z,100913.56
2022-08-08T13:56:11.852Z,100901.56
2022-08-08T13:58:57.351Z,100902.34
2022-08-08T14:01:41.815Z,100895.88
2022-08-08T14:04:22.368Z,100899.50
2022-08-08T14:06:58.140Z,100887.19
2022-08-08T14:10:04.526Z,100887.84
2022-08-08T14:12:26.110Z,100892.34
2022-08-08T14:14:55.009Z,100887.72
2022-08-08T14:17:22.752Z,100895.19
2022-08-08T14:20:14.693Z,100890.34
2022-08-08T14:22:43.108Z,100893.16
2022-08-08T14:25:15.363Z,100890.72
2022-08-08T14:27:59.541Z,100884.97
2022-08-08T14:30:34.427Z,100878.38
2022-08-08T14:33:01.462Z,100881.16
2022-08-08T14:35:36.050Z,100882.59
2022-08-08T14:38:34.765Z,100876.00
2022-08-08T14:40:59.431Z,100878.47
2022-08-08T14:44:02.684Z,100873.19
2022-08-08T14:46:16.754Z,100872.53
2022-08-08T14:48:56.905Z,100866.78
2022-08-08T14:51:47.181Z,100873.00
2022-08-08T14:54:13.745Z,100870.69
2022-08-08T14:56:42.823Z,100876.31
2022-08-08T14:59:22.463Z,100874.06
2022-08-08T15:02:00.636Z,100876.38
2022-08-08T15:04:27.300Z,100879.72
2022-08-08T15:06:55.585Z,100887.03
2022-08-08T15:09:23.202Z,100880.84
2022-08-08T15:11:53.145Z,100889.84
2022-08-08T15:14:22.525Z,100880.06
2022-08-08T15:16:53.255Z,100879.41
2022-08-08T15:19:19.796Z,100881.63
2022-08-08T15:21:50.278Z,100880.88
2022-08-08T15:24:17.061Z,100880.75
2022-08-08T15:26:52.453Z,100878.44
2022-08-08T15:29:22.621Z,100882.25
2022-08-08T15:32:03.867Z,100877.88
2022-08-08T15:34:38.692Z,100880.66
2022-08-08T15:37:05.746Z,100875.81
2022-08-08T15:39:37.544Z,100875.16
2022-08-08T15:42:06.852Z,100875.47
2022-08-08T15:44:41.080Z,100862.41
2022-08-08T15:47:15.584Z,100863.69
2022-08-08T15:49:47.825Z,100872.75
2022-08-08T15:52:16.065Z,100866.50
2022-08-08T15:54:46.183Z,100865.81
2022-08-08T15:57:18.569Z,100861.69
2022-08-08T16:00:06.617Z,100866.41
2022-08-08T16:02:32.171Z,100868.63
2022-08-08T16:05:00.781Z,100856.53
2022-08-08T16:07:50.729Z,100856.91
2022-08-08T16:13:12.125Z,100855.59
2022-08-08T16:13:28.418Z,100856.19
2022-08-08T16:15:58.544Z,100854.50
2022-08-08T16:18:30.861Z,100855.63
2022-08-08T16:21:00.263Z,100852.22
2022-08-08T16:23:31.823Z,100858.72
2022-08-08T16:26:03.953Z,100862.22
2022-08-08T16:28:34.860Z,100853.06
2022-08-08T16:31:07.552Z,100866.34
2022-08-08T16:33:38.075Z,100859.59
2022-08-08T16:36:05.801Z,100860.38
2022-08-08T16:38:36.461Z,100858.91
2022-08-08T16:41:11.758Z,100869.69
2022-08-08T16:43:51.294Z,100869.19
2022-08-08T16:46:43.021Z,100874.31
2022-08-08T16:49:07.883Z,100870.81
2022-08-08T16:55:20.748Z,100878.34
2022-08-08T16:55:22.688Z,100878.00
2022-08-08T16:57:23.451Z,100882.88
2022-08-08T16:59:58.149Z,100888.19
2022-08-08T17:02:44.298Z,100889.50
2022-08-08T17:05:13.824Z,100892.75
2022-08-08T17:07:41.753Z,100894.22
2022-08-08T17:10:10.226Z,100895.63
2022-08-08T17:12:38.706Z,100902.19
2022-08-08T17:15:20.411Z,100899.19
2022-08-08T17:18:03.538Z,100902.84
2022-08-08T17:20:39.537Z,100905.41
2022-08-08T17:23:17.693Z,100907.03
2022-08-08T17:25:56.362Z,100908.75
2022-08-08T17:28:34.994Z,100910.28
2022-08-08T17:31:44.554Z,100912.34
2022-08-08T17:34:36.772Z,100918.47
2022-08-08T17:37:00.766Z,100918.72
2022-08-08T17:40:05.067Z,100918.16
2022-08-08T17:42:15.527Z,100921.19
2022-08-08T17:44:44.096Z,100923.72
2022-08-08T17:47:11.347Z,100934.44
2022-08-08T17:49:51.609Z,100925.16
2022-08-08T17:52:18.491Z,100930.91
2022-08-08T17:54:46.170Z,100927.75
2022-08-08T17:57:14.247Z,100930.47
2022-08-08T17:59:45.380Z,100926.66
2022-08-08T18:02:18.498Z,100934.53
2022-08-08T18:04:50.314Z,100944.31
2022-08-08T18:08:03.499Z,100942.63
2022-08-08T18:10:04.041Z,100955.44
2022-08-08T18:12:30.681Z,100951.78
2022-08-08T18:14:57.663Z,100957.16
2022-08-08T18:17:28.647Z,100958.53
2022-08-08T18:20:43.343Z,100964.41
2022-08-08T18:22:51.255Z,100966.00
2022-08-08T18:25:18.186Z,100953.16
2022-08-08T18:27:46.419Z,100958.59
2022-08-08T18:30:13.351Z,100959.28
2022-08-08T18:32:41.974Z,100972.28
2022-08-08T18:35:15.350Z,100966.72
2022-08-08T18:37:48.090Z,100973.63
2022-08-08T18:40:15.496Z,100976.34
2022-08-08T18:42:45.621Z,100978.16
2022-08-08T18:46:00.677Z,100985.78
2022-08-08T18:48:07.487Z,100988.59
2022-08-08T18:50:34.888Z,100985.06
2022-08-08T18:53:06.525Z,100984.88
2022-08-08T18:55:33.885Z,100988.69
2022-08-08T18:58:00.497Z,100989.28
2022-08-08T19:00:27.116Z,100987.38
2022-08-08T19:02:57.974Z,100988.56
2022-08-08T19:05:37.794Z,100992.81
2022-08-08T19:08:24.821Z,100993.78
2022-08-08T19:10:55.964Z,100994.59
2022-08-08T19:13:25.116Z,100996.03
2022-08-08T19:15:55.775Z,101007.19
2022-08-08T19:18:32.184Z,101002.81
2022-08-08T19:21:28.844Z,101006.50
2022-08-08T19:23:56.979Z,101010.97
2022-08-08T19:26:30.232Z,101014.78
2022-08-08T19:28:57.964Z,101014.50
2022-08-08T19:31:31.304Z,101018.94
2022-08-08T19:34:30.464Z,101019.91
2022-08-08T19:36:52.035Z,101022.47
2022-08-08T19:39:19.479Z,101025.91
2022-08-08T19:41:49.377Z,101027.63
2022-08-08T19:44:42.309Z,101026.00
2022-08-08T19:47:03.175Z,101036.84
2022-08-08T19:49:37.679Z,101031.81
2022-08-08T19:52:06.049Z,101036.72
2022-08-08T19:54:32.588Z,101027.34
2022-08-08T19:56:59.745Z,101031.22
2022-08-08T19:59:31.077Z,101035.31
2022-08-08T20:02:04.678Z,101032.50
2022-08-08T20:04:33.726Z,101031.25
2022-08-08T20:08:26.900Z,101032.69
2022-08-08T20:09:56.576Z,101030.88
2022-08-08T20:12:32.255Z,101028.72
2022-08-08T20:15:14.084Z,101029.31
2022-08-08T20:17:43.419Z,101031.22
2022-08-08T20:20:18.902Z,101035.38
2022-08-08T20:22:54.293Z,101026.19
2022-08-08T20:25:24.854Z,101025.72
2022-08-08T20:27:56.439Z,101026.28
2022-08-08T20:30:53.209Z,101022.53
2022-08-08T20:33:20.145Z,101030.66
2022-08-08T20:35:57.921Z,101032.84
2022-08-08T20:38:32.148Z,101035.84
2022-08-08T20:41:00.232Z,101031.47
2022-08-08T20:43:43.906Z,101039.00
2022-08-08T20:46:13.457Z,101042.53
2022-08-08T20:48:41.002Z,101046.22
2022-08-08T20:51:07.783Z,101037.88
2022-08-08T20:54:00.726Z,101037.03
2022-08-08T20:56:36.058Z,101038.19
2022-08-08T20:59:09.187Z,101038.47
2022-08-08T21:02:05.778Z,101035.81
2022-08-08T21:04:23.766Z,101037.44
2022-08-08T21:06:54.514Z,101045.28
2022-08-08T21:09:21.878Z,101048.72
2022-08-08T21:11:51.880Z,101046.69
2022-08-08T21:14:30.295Z,101047.75
2022-08-08T21:17:00.517Z,101043.63
2022-08-08T21:19:44.394Z,101056.69
2022-08-08T21:22:13.871Z,101057.03
2022-08-08T21:24:41.757Z,101059.28
2022-08-08T21:27:38.890Z,101062.56
2022-08-08T21:30:12.175Z,101055.16
2022-08-08T21:32:51.131Z,101062.41
2022-08-08T21:36:13.894Z,101068.88
2022-08-08T21:38:11.779Z,101072.81
2022-08-08T21:40:54.730Z,101072.69
2022-08-08T21:43:23.764Z,101072.19
2022-08-08T21:48:04.937Z,101080.81
2022-08-08T21:48:44.805Z,101075.38
2022-08-08T21:51:46.057Z,101078.31
2022-08-08T21:54:32.855Z,101083.22
2022-08-08T21:56:51.484Z,101091.41
2022-08-08T21:59:20.876Z,101089.94
2022-08-08T22:01:52.525Z,101086.78
2022-08-08T22:04:24.532Z,101091.06
2022-08-08T22:06:52.464Z,101089.19
2022-08-08T22:09:19.558Z,101093.63
2022-08-08T22:12:02.652Z,101093.09
2022-08-08T22:14:31.532Z,101097.97
2022-08-08T22:17:01.182Z,101099.19
2022-08-08T22:19:29.805Z,101098.66
2022-08-08T22:21:57.377Z,101095.22
2022-08-08T22:24:28.268Z,101102.81
2022-08-08T22:27:02.172Z,101103.28
2022-08-08T22:29:59.552Z,101100.38
2022-08-08T22:32:19.448Z,101092.91
2022-08-08T22:34:51.330Z,101098.25
2022-08-08T22:37:49.134Z,101104.81
2022-08-08T22:40:11.893Z,101110.00
2022-08-08T22:42:47.073Z,101112.75
2022-08-08T22:45:13.903Z,101119.28
2022-08-08T22:47:48.683Z,101124.41
2022-08-08T22:50:25.779Z,101120.31
2022-08-08T22:54:30.925Z,101116.59
2022-08-08T22:55:57.994Z,101115.66
2022-08-08T22:58:33.257Z,101117.00
2022-08-08T23:01:26.585Z,101122.16
2022-08-08T23:03:53.591Z,101116.31
2022-08-08T23:06:21.671Z,101130.50
2022-08-08T23:08:54.536Z,101132.72
2022-08-08T23:11:31.043Z,101128.50
2022-08-08T23:14:11.437Z,101132.38
2022-08-08T23:16:43.381Z,101149.94
2022-08-08T23:19:10.897Z,101140.50
2022-08-08T23:21:38.028Z,101149.19
2022-08-08T23:24:06.587Z,101156.22
2022-08-08T23:26:34.016Z,101153.78
2022-08-08T23:29:00.876Z,101151.09
2022-08-08T23:31:27.343Z,101159.78
2022-08-08T23:34:16.506Z,101152.66
2022-08-08T23:36:40.463Z,101157.81
2022-08-08T23:39:07.792Z,101155.41
2022-08-08T23:41:45.482Z,101150.28
2022-08-08T23:44:13.351Z,101149.47
2022-08-08T23:49:00.667Z,101151.38
2022-08-08T23:49:26.578Z,101148.63
2022-08-08T23:52:06.078Z,101145.97
2022-08-08T23:54:41.403Z,101142.63
2022-08-08T23:57:25.162Z,101131.34
